BTK6414 WARR-WADD
Flight info
| Callsign | BTK6414 |
|---|---|
| Flight time | 0h 40m |
| Altitude | 23000 |
| Route | MOVMO1B MOVMO MOVMO1E |
| Aircraft | B738/M-SDE2E3FGHIRWXY/LB1 |
Departure
| Time | 2026-04-29 14:50 |
|---|---|
| Airport | Juanda International Airport (WARR) |
Arrival
| Time | 2026-04-29 15:30 |
|---|---|
| Airport | Denpasar I Gusti Ngurah Rai International Airport (WADD) |
| Time | Latitude | Longitude | Altitude | Speed | Heading |
|---|---|---|---|---|---|
| 2026-04-29 14:34 | -7.37639 | 112.79763 | 8 ft | 0 kts | 9° |
| 2026-04-29 14:41 | -7.37646 | 112.79762 | 8 ft | 2 kts | 9° |
| 2026-04-29 14:41 | -7.37661 | 112.79759 | 8 ft | 2 kts | 9° |
| 2026-04-29 14:41 | -7.37676 | 112.79757 | 8 ft | 2 kts | 9° |
| 2026-04-29 14:42 | -7.37691 | 112.79755 | 8 ft | 2 kts | 9° |
| 2026-04-29 14:42 | -7.37706 | 112.79752 | 8 ft | 2 kts | 29° |
| 2026-04-29 14:42 | -7.37717 | 112.79742 | 8 ft | 2 kts | 55° |
| 2026-04-29 14:42 | -7.37723 | 112.79728 | 8 ft | 2 kts | 82° |
| 2026-04-29 14:43 | -7.37723 | 112.79719 | 8 ft | 1 kts | 98° |
| 2026-04-29 14:43 | -7.37722 | 112.79712 | 8 ft | 0 kts | 99° |
| 2026-04-29 14:44 | -7.37722 | 112.79713 | 8 ft | 0 kts | 99° |
| 2026-04-29 14:45 | -7.37723 | 112.79714 | 8 ft | 1 kts | 99° |
| 2026-04-29 14:45 | -7.37724 | 112.79723 | 8 ft | 0 kts | 99° |
| 2026-04-29 14:45 | -7.37724 | 112.79725 | 8 ft | 0 kts | 99° |
| 2026-04-29 14:45 | -7.37725 | 112.79730 | 8 ft | 3 kts | 99° |
| 2026-04-29 14:46 | -7.37732 | 112.79771 | 8 ft | 7 kts | 103° |
| 2026-04-29 14:46 | -7.37774 | 112.79810 | 8 ft | 9 kts | 176° |
| 2026-04-29 14:46 | -7.37851 | 112.79799 | 8 ft | 12 kts | 189° |
| 2026-04-29 14:46 | -7.37938 | 112.79785 | 9 ft | 13 kts | 181° |
| 2026-04-29 14:47 | -7.37994 | 112.79838 | 11 ft | 11 kts | 103° |
| 2026-04-29 14:47 | -7.38009 | 112.79926 | 11 ft | 13 kts | 99° |
| 2026-04-29 14:47 | -7.38038 | 112.80019 | 11 ft | 11 kts | 136° |
| 2026-04-29 14:47 | -7.38089 | 112.80038 | 11 ft | 0 kts | 184° |
| 2026-04-29 14:48 | -7.38097 | 112.80037 | 11 ft | 3 kts | 184° |
| 2026-04-29 14:48 | -7.38146 | 112.80033 | 11 ft | 10 kts | 185° |
| 2026-04-29 14:48 | -7.38194 | 112.79999 | 11 ft | 8 kts | 278° |
| 2026-04-29 14:49 | -7.38187 | 112.79936 | 11 ft | 14 kts | 279° |
| 2026-04-29 14:49 | -7.38128 | 112.79575 | 9 ft | 92 kts | 279° |
| 2026-04-29 14:49 | -7.37985 | 112.78696 | 12 ft | 160 kts | 279° |
| 2026-04-29 14:49 | -7.37785 | 112.77476 | 414 ft | 185 kts | 281° |
| 2026-04-29 14:50 | -7.37555 | 112.76183 | 1138 ft | 196 kts | 281° |
| 2026-04-29 14:50 | -7.37305 | 112.74789 | 1782 ft | 208 kts | 280° |
| 2026-04-29 14:50 | -7.37056 | 112.73337 | 2286 ft | 221 kts | 280° |
| 2026-04-29 14:50 | -7.36790 | 112.71759 | 2727 ft | 239 kts | 280° |
| 2026-04-29 14:51 | -7.36499 | 112.70056 | 3231 ft | 256 kts | 282° |
| 2026-04-29 14:51 | -7.35828 | 112.68364 | 3830 ft | 267 kts | 309° |
| 2026-04-29 14:51 | -7.34346 | 112.67248 | 4470 ft | 272 kts | 341° |
| 2026-04-29 14:51 | -7.32487 | 112.66999 | 5225 ft | 273 kts | 8° |
| 2026-04-29 14:52 | -7.30711 | 112.67522 | 5985 ft | 273 kts | 28° |
| 2026-04-29 14:52 | -7.29176 | 112.68632 | 6729 ft | 275 kts | 49° |
| 2026-04-29 14:52 | -7.28183 | 112.70088 | 7453 ft | 276 kts | 62° |
| 2026-04-29 14:52 | -7.27394 | 112.71674 | 8106 ft | 280 kts | 65° |
| 2026-04-29 14:53 | -7.26521 | 112.73531 | 8863 ft | 284 kts | 65° |
| 2026-04-29 14:53 | -7.25734 | 112.75143 | 9546 ft | 286 kts | 64° |
| 2026-04-29 14:53 | -7.24777 | 112.77014 | 10282 ft | 291 kts | 63° |
| 2026-04-29 14:53 | -7.23823 | 112.78840 | 10751 ft | 304 kts | 63° |
| 2026-04-29 14:54 | -7.22816 | 112.80757 | 11180 ft | 318 kts | 63° |
| 2026-04-29 14:54 | -7.21805 | 112.82812 | 11571 ft | 332 kts | 68° |
| 2026-04-29 14:54 | -7.21194 | 112.85080 | 12097 ft | 341 kts | 84° |
| 2026-04-29 14:54 | -7.21343 | 112.87426 | 12812 ft | 344 kts | 102° |
| 2026-04-29 14:55 | -7.22079 | 112.89542 | 13413 ft | 350 kts | 114° |
| 2026-04-29 14:55 | -7.23099 | 112.91541 | 14047 ft | 354 kts | 117° |
| 2026-04-29 14:55 | -7.24307 | 112.93729 | 14727 ft | 358 kts | 118° |
| 2026-04-29 14:56 | -7.25547 | 112.95925 | 15394 ft | 362 kts | 118° |
| 2026-04-29 14:56 | -7.26784 | 112.98117 | 16089 ft | 364 kts | 118° |
| 2026-04-29 14:56 | -7.28022 | 113.00325 | 16740 ft | 368 kts | 117° |
| 2026-04-29 14:56 | -7.29289 | 113.02602 | 17381 ft | 372 kts | 117° |
| 2026-04-29 14:57 | -7.30546 | 113.04868 | 18011 ft | 375 kts | 117° |
| 2026-04-29 14:57 | -7.31821 | 113.07171 | 18605 ft | 378 kts | 118° |
| 2026-04-29 14:57 | -7.33098 | 113.09479 | 19229 ft | 380 kts | 118° |
| 2026-04-29 14:57 | -7.34380 | 113.11797 | 19765 ft | 385 kts | 118° |
| 2026-04-29 14:58 | -7.35702 | 113.14169 | 20341 ft | 389 kts | 118° |
| 2026-04-29 14:58 | -7.37106 | 113.16499 | 20901 ft | 392 kts | 122° |
| 2026-04-29 14:58 | -7.38724 | 113.18707 | 21469 ft | 395 kts | 127° |
| 2026-04-29 14:58 | -7.40503 | 113.20818 | 22015 ft | 398 kts | 130° |
| 2026-04-29 14:59 | -7.42385 | 113.22915 | 22489 ft | 403 kts | 131° |
| 2026-04-29 14:59 | -7.44296 | 113.24998 | 22930 ft | 407 kts | 131° |
| 2026-04-29 14:59 | -7.46230 | 113.27100 | 23022 ft | 410 kts | 131° |
| 2026-04-29 14:59 | -7.48139 | 113.29182 | 23026 ft | 407 kts | 131° |
| 2026-04-29 15:00 | -7.50058 | 113.31289 | 23027 ft | 407 kts | 131° |
| 2026-04-29 15:00 | -7.51973 | 113.33402 | 23032 ft | 405 kts | 130° |
| 2026-04-29 15:00 | -7.53854 | 113.35487 | 23032 ft | 405 kts | 130° |
| 2026-04-29 15:00 | -7.55753 | 113.37598 | 23030 ft | 406 kts | 130° |
| 2026-04-29 15:01 | -7.57029 | 113.39020 | 23033 ft | 405 kts | 130° |
| 2026-04-29 15:01 | -7.59534 | 113.41814 | 23038 ft | 404 kts | 130° |
| 2026-04-29 15:01 | -7.61436 | 113.43938 | 23040 ft | 403 kts | 130° |
| 2026-04-29 15:01 | -7.63315 | 113.46038 | 23043 ft | 404 kts | 131° |
| 2026-04-29 15:02 | -7.65184 | 113.48129 | 23040 ft | 405 kts | 130° |
| 2026-04-29 15:02 | -7.67072 | 113.50240 | 23038 ft | 403 kts | 130° |
| 2026-04-29 15:02 | -7.68944 | 113.52335 | 23040 ft | 404 kts | 130° |
| 2026-04-29 15:02 | -7.70820 | 113.54433 | 23040 ft | 404 kts | 130° |
| 2026-04-29 15:03 | -7.72697 | 113.56534 | 23053 ft | 404 kts | 131° |
| 2026-04-29 15:03 | -7.74594 | 113.58657 | 23059 ft | 404 kts | 131° |
| 2026-04-29 15:03 | -7.76458 | 113.60742 | 23068 ft | 403 kts | 131° |
| 2026-04-29 15:03 | -7.78343 | 113.62851 | 23082 ft | 403 kts | 131° |
| 2026-04-29 15:04 | -7.80216 | 113.64947 | 23093 ft | 404 kts | 131° |
| 2026-04-29 15:04 | -7.82112 | 113.67069 | 23094 ft | 404 kts | 131° |
| 2026-04-29 15:04 | -7.83990 | 113.69171 | 23102 ft | 403 kts | 130° |
| 2026-04-29 15:04 | -7.85862 | 113.71267 | 23110 ft | 403 kts | 131° |
| 2026-04-29 15:05 | -7.87732 | 113.73360 | 23114 ft | 404 kts | 131° |
| 2026-04-29 15:05 | -7.89000 | 113.74781 | 23118 ft | 404 kts | 131° |
| 2026-04-29 15:05 | -7.91486 | 113.77566 | 23129 ft | 401 kts | 131° |
| 2026-04-29 15:05 | -7.93380 | 113.79688 | 23143 ft | 402 kts | 131° |
| 2026-04-29 15:06 | -7.95229 | 113.81760 | 23144 ft | 404 kts | 131° |
| 2026-04-29 15:06 | -7.97112 | 113.83871 | 23147 ft | 403 kts | 131° |
| 2026-04-29 15:06 | -7.99046 | 113.85950 | 23159 ft | 403 kts | 134° |
| 2026-04-29 15:06 | -8.01175 | 113.87801 | 23162 ft | 404 kts | 144° |
| 2026-04-29 15:07 | -8.03643 | 113.89153 | 23173 ft | 405 kts | 156° |
| 2026-04-29 15:07 | -8.06330 | 113.89990 | 23165 ft | 408 kts | 166° |
| 2026-04-29 15:07 | -8.09151 | 113.90506 | 23161 ft | 409 kts | 169° |
| 2026-04-29 15:07 | -8.11964 | 113.90897 | 23157 ft | 410 kts | 171° |
| 2026-04-29 15:08 | -8.14809 | 113.91242 | 23148 ft | 410 kts | 171° |
| 2026-04-29 15:08 | -8.17653 | 113.91570 | 23138 ft | 411 kts | 171° |
| 2026-04-29 15:08 | -8.20537 | 113.91901 | 23125 ft | 411 kts | 171° |
| 2026-04-29 15:08 | -8.23358 | 113.92229 | 23117 ft | 411 kts | 171° |
| 2026-04-29 15:09 | -8.26237 | 113.92570 | 23108 ft | 411 kts | 171° |
| 2026-04-29 15:09 | -8.29076 | 113.92911 | 23101 ft | 411 kts | 171° |
| 2026-04-29 15:09 | -8.31898 | 113.93254 | 23105 ft | 410 kts | 171° |
| 2026-04-29 15:09 | -8.34766 | 113.93607 | 23094 ft | 411 kts | 171° |
| 2026-04-29 15:10 | -8.37612 | 113.93958 | 23085 ft | 411 kts | 171° |
| 2026-04-29 15:10 | -8.40463 | 113.94311 | 23087 ft | 410 kts | 171° |
| 2026-04-29 15:10 | -8.43276 | 113.94659 | 23086 ft | 411 kts | 171° |
| 2026-04-29 15:10 | -8.46122 | 113.95013 | 23076 ft | 411 kts | 171° |
| 2026-04-29 15:11 | -8.48960 | 113.95366 | 23065 ft | 411 kts | 171° |
| 2026-04-29 15:11 | -8.51785 | 113.95765 | 23028 ft | 401 kts | 168° |
| 2026-04-29 15:11 | -8.54462 | 113.96455 | 22718 ft | 390 kts | 158° |
| 2026-04-29 15:11 | -8.56874 | 113.97633 | 22283 ft | 383 kts | 146° |
| 2026-04-29 15:12 | -8.59000 | 113.99231 | 21773 ft | 380 kts | 136° |
| 2026-04-29 15:12 | -8.60260 | 114.00457 | 21409 ft | 378 kts | 131° |
| 2026-04-29 15:12 | -8.62460 | 114.03223 | 20654 ft | 376 kts | 120° |
| 2026-04-29 15:12 | -8.63639 | 114.05540 | 20098 ft | 374 kts | 112° |
| 2026-04-29 15:13 | -8.64570 | 114.07976 | 19537 ft | 373 kts | 108° |
| 2026-04-29 15:13 | -8.65402 | 114.10451 | 18973 ft | 372 kts | 107° |
| 2026-04-29 15:13 | -8.66195 | 114.12933 | 18419 ft | 371 kts | 106° |
| 2026-04-29 15:13 | -8.66973 | 114.15398 | 17844 ft | 370 kts | 106° |
| 2026-04-29 15:14 | -8.67762 | 114.17868 | 17281 ft | 369 kts | 107° |
| 2026-04-29 15:14 | -8.68556 | 114.20309 | 16730 ft | 368 kts | 107° |
| 2026-04-29 15:14 | -8.69369 | 114.22772 | 16165 ft | 367 kts | 107° |
| 2026-04-29 15:14 | -8.70172 | 114.25182 | 15613 ft | 365 kts | 107° |
| 2026-04-29 15:15 | -8.70976 | 114.27582 | 15052 ft | 354 kts | 107° |
| 2026-04-29 15:15 | -8.71743 | 114.29870 | 14541 ft | 342 kts | 107° |
| 2026-04-29 15:15 | -8.72492 | 114.32109 | 14021 ft | 331 kts | 107° |
| 2026-04-29 15:15 | -8.73217 | 114.34277 | 13526 ft | 321 kts | 107° |
| 2026-04-29 15:16 | -8.73921 | 114.36388 | 13065 ft | 324 kts | 107° |
| 2026-04-29 15:16 | -8.74658 | 114.38602 | 12588 ft | 334 kts | 107° |
| 2026-04-29 15:16 | -8.75402 | 114.40831 | 12108 ft | 334 kts | 108° |
| 2026-04-29 15:16 | -8.76131 | 114.43012 | 11599 ft | 324 kts | 108° |
| 2026-04-29 15:17 | -8.76840 | 114.45132 | 11111 ft | 314 kts | 108° |
| 2026-04-29 15:17 | -8.77525 | 114.47186 | 10660 ft | 304 kts | 108° |
| 2026-04-29 15:17 | -8.78196 | 114.49199 | 10421 ft | 311 kts | 108° |
| 2026-04-29 15:17 | -8.78657 | 114.50581 | 10315 ft | 307 kts | 108° |
| 2026-04-29 15:18 | -8.79532 | 114.53198 | 10160 ft | 281 kts | 108° |
| 2026-04-29 15:18 | -8.80146 | 114.55037 | 9901 ft | 268 kts | 108° |
| 2026-04-29 15:18 | -8.80736 | 114.56805 | 9558 ft | 265 kts | 108° |
| 2026-04-29 15:18 | -8.81127 | 114.57975 | 9300 ft | 265 kts | 108° |
| 2026-04-29 15:19 | -8.81912 | 114.60330 | 8861 ft | 263 kts | 108° |
| 2026-04-29 15:19 | -8.82494 | 114.62078 | 8533 ft | 262 kts | 108° |
| 2026-04-29 15:19 | -8.83069 | 114.63806 | 8208 ft | 261 kts | 108° |
| 2026-04-29 15:19 | -8.83650 | 114.65551 | 7876 ft | 260 kts | 107° |
| 2026-04-29 15:20 | -8.84200 | 114.67268 | 7541 ft | 259 kts | 104° |
| 2026-04-29 15:20 | -8.84416 | 114.69072 | 7209 ft | 256 kts | 83° |
| 2026-04-29 15:20 | -8.83927 | 114.70774 | 6916 ft | 254 kts | 67° |
| 2026-04-29 15:20 | -8.83200 | 114.72384 | 6588 ft | 253 kts | 66° |
| 2026-04-29 15:21 | -8.82473 | 114.73992 | 6266 ft | 252 kts | 67° |
| 2026-04-29 15:21 | -8.81779 | 114.75613 | 5953 ft | 251 kts | 68° |
| 2026-04-29 15:21 | -8.81114 | 114.77230 | 5641 ft | 250 kts | 69° |
| 2026-04-29 15:21 | -8.80451 | 114.78873 | 5316 ft | 249 kts | 69° |
| 2026-04-29 15:22 | -8.79805 | 114.80469 | 5003 ft | 248 kts | 69° |
| 2026-04-29 15:22 | -8.79148 | 114.82079 | 4690 ft | 247 kts | 69° |
| 2026-04-29 15:22 | -8.78491 | 114.83682 | 4370 ft | 246 kts | 69° |
| 2026-04-29 15:22 | -8.77843 | 114.85265 | 4072 ft | 244 kts | 69° |
| 2026-04-29 15:23 | -8.77198 | 114.86840 | 3909 ft | 236 kts | 69° |
| 2026-04-29 15:23 | -8.76582 | 114.88340 | 3840 ft | 226 kts | 69° |
| 2026-04-29 15:23 | -8.75985 | 114.89798 | 3775 ft | 225 kts | 69° |
| 2026-04-29 15:23 | -8.75457 | 114.91264 | 3655 ft | 218 kts | 78° |
| 2026-04-29 15:24 | -8.75323 | 114.92771 | 3427 ft | 214 kts | 92° |
| 2026-04-29 15:24 | -8.75395 | 114.94237 | 3189 ft | 208 kts | 93° |
| 2026-04-29 15:24 | -8.75452 | 114.95682 | 2952 ft | 201 kts | 91° |
| 2026-04-29 15:24 | -8.75473 | 114.97068 | 2806 ft | 192 kts | 91° |
| 2026-04-29 15:25 | -8.75479 | 114.98377 | 2670 ft | 183 kts | 91° |
| 2026-04-29 15:25 | -8.75473 | 114.99636 | 2538 ft | 174 kts | 89° |
| 2026-04-29 15:25 | -8.75433 | 115.00816 | 2425 ft | 163 kts | 88° |
| 2026-04-29 15:25 | -8.75387 | 115.01902 | 2281 ft | 147 kts | 89° |
| 2026-04-29 15:26 | -8.75346 | 115.02899 | 2122 ft | 137 kts | 89° |
| 2026-04-29 15:26 | -8.75305 | 115.03864 | 1973 ft | 135 kts | 89° |
| 2026-04-29 15:26 | -8.75269 | 115.04799 | 1854 ft | 134 kts | 89° |
| 2026-04-29 15:26 | -8.75232 | 115.05733 | 1736 ft | 130 kts | 90° |
| 2026-04-29 15:27 | -8.75197 | 115.06630 | 1651 ft | 130 kts | 89° |
| 2026-04-29 15:27 | -8.75164 | 115.07568 | 1477 ft | 135 kts | 89° |
| 2026-04-29 15:27 | -8.75127 | 115.08511 | 1268 ft | 133 kts | 89° |
| 2026-04-29 15:27 | -8.75091 | 115.09463 | 1096 ft | 135 kts | 89° |
| 2026-04-29 15:28 | -8.75056 | 115.10402 | 928 ft | 134 kts | 90° |
| 2026-04-29 15:28 | -8.75033 | 115.11025 | 818 ft | 137 kts | 90° |
| 2026-04-29 15:28 | -8.74986 | 115.12317 | 549 ft | 137 kts | 90° |
| 2026-04-29 15:28 | -8.74976 | 115.13271 | 364 ft | 137 kts | 90° |
| 2026-04-29 15:29 | -8.74934 | 115.14239 | 224 ft | 138 kts | 90° |
| 2026-04-29 15:29 | -8.74863 | 115.16170 | 17 ft | 135 kts | 90° |
| 2026-04-29 15:30 | -8.74826 | 115.17172 | 17 ft | 30 kts | 88° |
| 2026-04-29 15:30 | -8.74801 | 115.17300 | 18 ft | 12 kts | 39° |
| 2026-04-29 15:30 | -8.74724 | 115.17311 | 19 ft | 10 kts | 359° |
| 2026-04-29 15:30 | -8.74667 | 115.17293 | 20 ft | 8 kts | 308° |
| 2026-04-29 15:31 | -8.74654 | 115.17236 | 19 ft | 9 kts | 269° |
| 2026-04-29 15:31 | -8.74656 | 115.17165 | 18 ft | 11 kts | 268° |
| 2026-04-29 15:31 | -8.74660 | 115.17082 | 18 ft | 12 kts | 267° |
| 2026-04-29 15:31 | -8.74665 | 115.16992 | 18 ft | 13 kts | 267° |
| 2026-04-29 15:32 | -8.74668 | 115.16904 | 19 ft | 12 kts | 268° |
| 2026-04-29 15:32 | -8.74671 | 115.16820 | 21 ft | 11 kts | 268° |
| 2026-04-29 15:32 | -8.74674 | 115.16734 | 21 ft | 12 kts | 267° |
| 2026-04-29 15:32 | -8.74678 | 115.16648 | 20 ft | 12 kts | 267° |
| 2026-04-29 15:33 | -8.74682 | 115.16560 | 20 ft | 12 kts | 268° |
| 2026-04-29 15:33 | -8.74685 | 115.16469 | 20 ft | 13 kts | 268° |
| 2026-04-29 15:33 | -8.74689 | 115.16374 | 20 ft | 13 kts | 267° |
| 2026-04-29 15:33 | -8.74694 | 115.16275 | 19 ft | 11 kts | 268° |
| 2026-04-29 15:34 | -8.74694 | 115.16206 | 18 ft | 9 kts | 270° |
| 2026-04-29 15:34 | -8.74685 | 115.16171 | 18 ft | 2 kts | 356° |
| 2026-04-29 15:34 | -8.74663 | 115.16173 | 18 ft | 2 kts | 356° |
| 2026-04-29 15:34 | -8.74650 | 115.16173 | 18 ft | 1 kts | 359° |
| 2026-04-29 15:35 | -8.74634 | 115.16172 | 18 ft | 3 kts | 359° |
| 2026-04-29 15:35 | -8.74627 | 115.16172 | 18 ft | 0 kts | 359° |